createdAt,value
2022-08-02T00:00:39.945Z,72.09
2022-08-02T00:03:07.666Z,71.60
2022-08-02T00:05:35.581Z,72.34
2022-08-02T00:08:03.399Z,71.98
2022-08-02T00:10:31.088Z,71.59
2022-08-02T00:12:58.768Z,71.99
2022-08-02T00:15:26.503Z,71.92
2022-08-02T00:17:54.535Z,72.26
2022-08-02T00:20:22.233Z,71.70
2022-08-02T00:22:49.934Z,71.97
2022-08-02T00:25:17.544Z,72.22
2022-08-02T00:27:45.680Z,72.50
2022-08-02T00:30:13.365Z,72.50
2022-08-02T00:32:41.146Z,72.48
2022-08-02T00:35:08.770Z,72.40
2022-08-02T00:37:36.784Z,72.27
2022-08-02T00:40:04.689Z,72.40
2022-08-02T00:42:32.368Z,72.36
2022-08-02T00:45:00.203Z,72.43
2022-08-02T00:47:27.901Z,72.06
2022-08-02T00:49:56.456Z,72.22
2022-08-02T00:52:24.132Z,72.69
2022-08-02T00:54:51.814Z,72.24
2022-08-02T00:57:19.551Z,72.45
2022-08-02T00:59:47.805Z,72.48
2022-08-02T01:02:16.042Z,72.84
2022-08-02T01:04:44.140Z,72.65
2022-08-02T01:07:13.318Z,72.48
2022-08-02T01:09:41.712Z,72.82
2022-08-02T01:12:09.782Z,72.30
2022-08-02T01:14:37.757Z,72.35
2022-08-02T01:17:05.420Z,72.66
2022-08-02T01:19:33.823Z,72.99
2022-08-02T01:22:03.266Z,72.71
2022-08-02T01:24:30.966Z,72.38
2022-08-02T01:26:58.589Z,72.55
2022-08-02T01:29:26.324Z,72.77
2022-08-02T01:31:53.995Z,72.46
2022-08-02T01:34:21.695Z,72.77
2022-08-02T01:36:49.404Z,72.47
2022-08-02T01:39:26.700Z,72.70
2022-08-02T01:42:00.350Z,73.17
2022-08-02T01:44:28.030Z,72.54
2022-08-02T01:46:55.743Z,72.97
2022-08-02T01:49:23.971Z,72.69
2022-08-02T01:52:09.336Z,73.06
2022-08-02T01:54:37.336Z,72.96
2022-08-02T01:57:05.403Z,73.10
2022-08-02T01:59:33.580Z,73.13
2022-08-02T02:02:01.361Z,73.40
2022-08-02T02:04:29.120Z,73.05
2022-08-02T02:06:57.146Z,72.58
2022-08-02T02:09:24.953Z,73.09
2022-08-02T02:12:11.504Z,72.66
2022-08-02T02:14:40.231Z,72.72
2022-08-02T02:17:07.905Z,72.48
2022-08-02T02:19:35.826Z,72.98
2022-08-02T02:22:03.530Z,72.40
2022-08-02T02:24:31.186Z,72.87
2022-08-02T02:27:00.199Z,72.73
2022-08-02T02:29:28.108Z,72.76
2022-08-02T02:31:55.767Z,73.07
2022-08-02T02:34:23.432Z,73.25
2022-08-02T02:36:51.196Z,73.21
2022-08-02T02:39:19.259Z,73.08
2022-08-02T02:41:46.896Z,72.98
2022-08-02T02:44:14.571Z,73.76
2022-08-02T02:46:42.275Z,73.25
2022-08-02T02:49:10.363Z,73.36
2022-08-02T02:51:38.175Z,73.18
2022-08-02T02:54:30.477Z,73.05
2022-08-02T02:56:53.530Z,72.96
2022-08-02T02:59:21.495Z,73.72
2022-08-02T03:01:55.815Z,73.54
2022-08-02T03:04:25.520Z,72.96
2022-08-02T03:06:53.573Z,73.28
2022-08-02T03:09:21.269Z,73.50
2022-08-02T03:11:48.946Z,73.79
2022-08-02T03:14:16.549Z,73.21
2022-08-02T03:16:44.205Z,73.20
2022-08-02T03:19:12.276Z,73.22
2022-08-02T03:21:39.949Z,73.65
2022-08-02T03:24:07.893Z,73.01
2022-08-02T03:26:35.683Z,72.88
2022-08-02T03:29:10.152Z,73.31
2022-08-02T03:31:38.916Z,73.74
2022-08-02T03:34:06.527Z,73.36
2022-08-02T03:36:34.285Z,73.91
2022-08-02T03:39:01.938Z,73.73
2022-08-02T03:41:29.723Z,73.68
2022-08-02T03:43:57.357Z,73.57
2022-08-02T03:46:25.051Z,73.56
2022-08-02T03:48:53.088Z,73.25
2022-08-02T03:51:20.840Z,73.38
2022-08-02T03:53:48.558Z,73.45
2022-08-02T03:56:16.167Z,73.29
2022-08-02T03:58:48.811Z,73.61
2022-08-02T04:01:17.073Z,73.46
2022-08-02T04:03:44.811Z,74.08
2022-08-02T04:06:12.494Z,73.56
2022-08-02T04:08:43.515Z,74.09
2022-08-02T04:11:28.684Z,74.26
2022-08-02T04:13:56.714Z,73.88
2022-08-02T04:16:24.756Z,73.74
2022-08-02T04:18:52.765Z,73.97
2022-08-02T04:21:20.433Z,73.91
2022-08-02T04:23:48.097Z,74.13
2022-08-02T04:26:16.781Z,73.80
2022-08-02T04:28:44.725Z,73.78
2022-08-02T04:31:12.414Z,73.32
2022-08-02T04:33:40.110Z,73.64
2022-08-02T04:36:08.002Z,73.32
2022-08-02T04:38:36.384Z,73.24
2022-08-02T04:41:04.004Z,73.15
2022-08-02T04:43:31.673Z,73.39
2022-08-02T04:45:59.356Z,73.01
2022-08-02T04:48:27.327Z,72.47
2022-08-02T04:50:55.010Z,72.23
2022-08-02T04:53:22.677Z,72.49
2022-08-02T04:55:50.349Z,72.57
2022-08-02T04:58:39.591Z,71.95
2022-08-02T05:01:06.187Z,71.57
2022-08-02T05:03:33.905Z,71.20
2022-08-02T05:06:01.961Z,70.88
2022-08-02T05:08:29.618Z,70.75
2022-08-02T05:10:57.308Z,70.59
2022-08-02T05:13:25.834Z,70.28
2022-08-02T05:15:53.458Z,70.07
2022-08-02T05:18:21.512Z,69.89
2022-08-02T05:20:49.613Z,70.07
2022-08-02T05:23:17.288Z,70.37
2022-08-02T05:25:45.001Z,70.17
2022-08-02T05:28:12.930Z,69.59
2022-08-02T05:30:40.666Z,69.61
2022-08-02T05:33:08.400Z,69.38
2022-08-02T05:35:36.601Z,69.12
2022-08-02T05:38:04.575Z,69.38
2022-08-02T05:40:37.868Z,68.95
2022-08-02T05:43:24.035Z,68.74
2022-08-02T05:45:53.720Z,68.76
2022-08-02T05:48:24.479Z,67.95
2022-08-02T05:50:55.509Z,67.97
2022-08-02T05:53:23.399Z,67.81
2022-08-02T05:55:51.430Z,68.09
2022-08-02T05:58:19.125Z,68.38
2022-08-02T06:00:46.886Z,67.94
2022-08-02T06:03:17.098Z,68.62
2022-08-02T06:05:45.765Z,68.75
2022-08-02T06:08:14.475Z,68.83
2022-08-02T06:10:42.223Z,68.64
2022-08-02T06:13:09.933Z,68.70
2022-08-02T06:15:50.235Z,67.71
2022-08-02T06:18:28.502Z,67.47
2022-08-02T06:20:56.452Z,67.60
2022-08-02T06:23:24.098Z,67.22
2022-08-02T06:25:52.165Z,66.94
2022-08-02T06:28:19.791Z,66.66
2022-08-02T06:30:47.479Z,66.56
2022-08-02T06:33:15.146Z,65.93
2022-08-02T06:35:42.908Z,65.83
2022-08-02T06:38:11.960Z,65.63
2022-08-02T06:40:39.665Z,65.28
2022-08-02T06:43:07.852Z,65.21
2022-08-02T06:45:35.499Z,65.01
2022-08-02T06:48:03.894Z,64.93
2022-08-02T06:50:31.574Z,64.57
2022-08-02T06:52:59.332Z,64.35
2022-08-02T06:55:27.846Z,64.28
2022-08-02T06:57:55.873Z,63.89
2022-08-02T07:00:23.638Z,64.08
2022-08-02T07:02:51.345Z,63.58
2022-08-02T07:05:19.371Z,63.30
2022-08-02T07:07:47.355Z,63.57
2022-08-02T07:10:15.092Z,63.16
2022-08-02T07:12:42.816Z,63.10
2022-08-02T07:15:12.737Z,62.33
2022-08-02T07:17:40.646Z,62.26
2022-08-02T07:20:08.416Z,62.32
2022-08-02T07:22:36.168Z,62.35
2022-08-02T07:25:03.867Z,62.12
2022-08-02T07:27:31.828Z,62.46
2022-08-02T07:29:59.610Z,62.25
2022-08-02T07:32:27.351Z,62.12
2022-08-02T07:34:55.530Z,61.58
2022-08-02T07:37:35.470Z,61.91
2022-08-02T07:40:14.078Z,61.35
2022-08-02T07:42:42.686Z,61.89
2022-08-02T07:45:10.471Z,61.70
2022-08-02T07:47:39.062Z,60.96
2022-08-02T07:50:06.722Z,61.16
2022-08-02T07:52:34.439Z,60.81
2022-08-02T07:55:02.606Z,60.10
2022-08-02T07:57:31.079Z,59.84
2022-08-02T07:59:58.776Z,59.71
2022-08-02T08:02:26.537Z,59.93
2022-08-02T08:04:54.725Z,59.67
2022-08-02T08:07:22.508Z,59.50
2022-08-02T08:09:53.651Z,58.99
2022-08-02T08:12:24.509Z,58.35
2022-08-02T08:14:52.249Z,58.36
2022-08-02T08:17:19.974Z,58.11
2022-08-02T08:19:51.620Z,57.47
2022-08-02T08:22:20.223Z,57.53
2022-08-02T08:24:48.595Z,57.18
2022-08-02T08:27:16.472Z,56.82
2022-08-02T08:29:44.494Z,56.50
2022-08-02T08:32:17.200Z,56.30
2022-08-02T08:34:45.795Z,55.36
2022-08-02T08:37:18.062Z,54.94
2022-08-02T08:39:56.498Z,54.64
2022-08-02T08:42:26.263Z,54.38
2022-08-02T08:44:54.000Z,54.46
2022-08-02T08:47:21.714Z,53.56
2022-08-02T08:49:52.699Z,53.40
2022-08-02T08:52:21.022Z,53.65
2022-08-02T08:54:48.904Z,53.42
2022-08-02T08:57:18.257Z,53.26
2022-08-02T08:59:46.308Z,53.01
2022-08-02T09:02:20.346Z,52.68
2022-08-02T09:04:55.148Z,52.25
2022-08-02T09:07:23.396Z,52.18
2022-08-02T09:09:51.196Z,51.93
2022-08-02T09:12:19.764Z,51.92
2022-08-02T09:14:50.290Z,51.73
2022-08-02T09:17:18.297Z,51.08
2022-08-02T09:19:46.600Z,51.11
2022-08-02T09:22:15.041Z,50.94
2022-08-02T09:24:43.267Z,51.24
2022-08-02T09:27:10.982Z,50.50
2022-08-02T09:30:05.861Z,49.85
2022-08-02T09:32:29.915Z,49.68
2022-08-02T09:34:57.556Z,49.20
2022-08-02T09:37:25.602Z,49.28
2022-08-02T09:39:57.007Z,49.41
2022-08-02T09:42:31.355Z,48.79
2022-08-02T09:44:59.155Z,48.83
2022-08-02T09:47:26.955Z,47.61
2022-08-02T09:49:55.308Z,47.75
2022-08-02T09:52:23.048Z,46.83
2022-08-02T09:55:05.522Z,46.50
2022-08-02T09:57:38.213Z,45.94
2022-08-02T10:00:06.312Z,45.45
2022-08-02T10:02:42.147Z,44.76
2022-08-02T10:05:11.769Z,44.66
2022-08-02T10:07:42.405Z,44.23
2022-08-02T10:10:10.175Z,44.10
2022-08-02T10:12:38.410Z,43.62
2022-08-02T10:15:06.515Z,41.98
2022-08-02T10:17:34.158Z,42.58
2022-08-02T10:20:04.797Z,42.58
2022-08-02T10:22:32.909Z,43.58
2022-08-02T10:25:00.669Z,43.34
2022-08-02T10:27:42.963Z,42.81
2022-08-02T10:30:16.447Z,41.50
2022-08-02T10:32:44.066Z,40.74
2022-08-02T10:35:18.521Z,41.46
2022-08-02T10:37:47.013Z,40.10
2022-08-02T10:40:24.439Z,41.05
2022-08-02T10:42:52.194Z,41.33
2022-08-02T10:45:20.277Z,41.93
2022-08-02T10:47:47.946Z,43.04
2022-08-02T10:50:21.239Z,43.81
2022-08-02T10:52:49.190Z,42.49
2022-08-02T10:55:22.228Z,41.71
2022-08-02T10:57:51.651Z,40.65
2022-08-02T11:00:19.709Z,40.55
2022-08-02T11:02:53.318Z,39.84
2022-08-02T11:05:21.356Z,39.13
2022-08-02T11:07:49.833Z,38.73
2022-08-02T11:10:17.718Z,37.42
2022-08-02T11:12:45.445Z,37.05
2022-08-02T11:15:13.141Z,36.77
2022-08-02T11:17:41.630Z,36.82
2022-08-02T11:20:09.450Z,36.20
2022-08-02T11:22:37.204Z,36.24
2022-08-02T11:25:04.906Z,35.64
2022-08-02T11:27:33.068Z,36.53
2022-08-02T11:30:00.804Z,36.55
2022-08-02T11:32:31.019Z,35.73
2022-08-02T11:34:59.311Z,35.29
2022-08-02T11:37:27.445Z,35.76
2022-08-02T11:39:55.135Z,35.11
2022-08-02T11:42:22.845Z,34.48
2022-08-02T11:44:50.576Z,35.63
2022-08-02T11:47:20.195Z,36.07
2022-08-02T11:49:48.429Z,35.78
2022-08-02T11:52:16.301Z,36.77
2022-08-02T11:54:44.051Z,36.99
2022-08-02T11:57:14.400Z,35.80
2022-08-02T11:59:46.612Z,35.42
2022-08-02T12:02:14.787Z,34.79
2022-08-02T12:04:42.706Z,34.26
2022-08-02T12:07:12.205Z,34.92
2022-08-02T12:09:42.618Z,35.43
2022-08-02T12:12:10.648Z,36.58
2022-08-02T12:14:38.512Z,37.04
2022-08-02T12:17:23.379Z,37.34
2022-08-02T12:19:51.481Z,37.14
2022-08-02T12:22:24.458Z,37.19
2022-08-02T12:24:55.428Z,37.23
2022-08-02T12:27:23.357Z,37.53
2022-08-02T12:29:55.655Z,37.87
2022-08-02T12:32:26.675Z,37.61
2022-08-02T12:34:54.619Z,38.19
2022-08-02T12:37:22.376Z,39.13
2022-08-02T12:39:51.282Z,38.83
2022-08-02T12:42:18.923Z,38.57
2022-08-02T12:44:46.632Z,38.75
2022-08-02T12:47:14.265Z,39.18
2022-08-02T12:49:43.087Z,38.82
2022-08-02T12:52:10.969Z,37.81
2022-08-02T12:54:38.627Z,36.83
2022-08-02T12:57:06.355Z,37.09
2022-08-02T12:59:38.816Z,37.24
2022-08-02T13:02:07.306Z,36.70
2022-08-02T13:04:34.993Z,37.57
2022-08-02T13:07:02.950Z,37.25
2022-08-02T13:09:30.789Z,36.84
2022-08-02T13:11:58.436Z,36.69
2022-08-02T13:14:26.183Z,36.81
2022-08-02T13:16:55.797Z,37.42
2022-08-02T13:19:23.737Z,37.19
2022-08-02T13:22:02.050Z,37.26
2022-08-02T13:24:40.495Z,37.14
2022-08-02T13:27:20.850Z,37.26
2022-08-02T13:29:49.022Z,37.19
2022-08-02T13:32:17.421Z,37.90
2022-08-02T13:34:45.430Z,38.51
2022-08-02T13:37:13.093Z,38.64
2022-08-02T13:39:40.801Z,38.38
2022-08-02T13:42:08.581Z,38.45
2022-08-02T13:44:44.658Z,38.21
2022-08-02T13:47:12.355Z,38.59
2022-08-02T13:49:50.805Z,38.28
2022-08-02T13:52:21.034Z,37.66
2022-08-02T13:54:48.697Z,37.71
2022-08-02T13:57:16.677Z,37.15
2022-08-02T13:59:55.895Z,36.52
2022-08-02T14:02:26.376Z,36.17
2022-08-02T14:04:54.363Z,35.86
2022-08-02T14:07:22.027Z,36.38
2022-08-02T14:09:49.775Z,36.04
2022-08-02T14:12:17.712Z,36.01
2022-08-02T14:14:45.560Z,36.21
2022-08-02T14:17:13.799Z,36.15
2022-08-02T14:19:41.776Z,35.01
2022-08-02T14:22:11.390Z,35.29
2022-08-02T14:24:39.832Z,34.84
2022-08-02T14:27:07.998Z,36.29
2022-08-02T14:29:35.726Z,36.23
2022-08-02T14:32:03.439Z,36.36
2022-08-02T14:34:31.194Z,36.24
2022-08-02T14:36:59.149Z,35.62
2022-08-02T14:39:26.857Z,36.22
2022-08-02T14:41:59.918Z,35.75
2022-08-02T14:44:38.811Z,35.43
2022-08-02T14:47:07.189Z,34.64
2022-08-02T14:49:38.296Z,34.56
2022-08-02T14:52:09.373Z,34.83
2022-08-02T14:54:37.317Z,34.80
2022-08-02T14:57:05.010Z,35.25
2022-08-02T14:59:32.736Z,34.80
2022-08-02T15:02:01.407Z,34.67
2022-08-02T15:04:41.076Z,34.29
2022-08-02T15:07:10.817Z,33.77
2022-08-02T15:09:39.812Z,33.79
2022-08-02T15:12:07.757Z,33.83
2022-08-02T15:14:35.368Z,33.74
2022-08-02T15:17:03.405Z,33.96
2022-08-02T15:19:57.043Z,33.49
2022-08-02T15:22:19.549Z,33.54
2022-08-02T15:24:48.169Z,32.66
2022-08-02T15:27:15.825Z,32.98
2022-08-02T15:29:43.626Z,32.83
2022-08-02T15:32:11.872Z,32.63
2022-08-02T15:34:39.916Z,32.71
2022-08-02T15:37:07.664Z,33.42
2022-08-02T15:39:35.356Z,32.56
2022-08-02T15:42:03.103Z,32.46
2022-08-02T15:44:30.862Z,32.90
2022-08-02T15:46:58.550Z,31.80
2022-08-02T15:49:26.347Z,32.36
2022-08-02T15:51:54.145Z,32.07
2022-08-02T15:54:21.946Z,31.96
2022-08-02T15:56:49.918Z,31.86
2022-08-02T15:59:17.646Z,31.97
2022-08-02T16:01:47.756Z,32.39
2022-08-02T16:04:15.706Z,31.90
2022-08-02T16:06:43.701Z,31.98
2022-08-02T16:09:11.383Z,31.06
2022-08-02T16:11:39.023Z,31.07
2022-08-02T16:14:06.792Z,30.66
2022-08-02T16:16:34.469Z,31.02
2022-08-02T16:19:46.269Z,31.05
2022-08-02T16:21:50.803Z,31.44
2022-08-02T16:24:18.552Z,31.04
2022-08-02T16:26:46.485Z,31.18
2022-08-02T16:29:14.386Z,31.63
2022-08-02T16:31:47.173Z,32.89
2022-08-02T16:34:14.832Z,34.03
2022-08-02T16:36:42.504Z,33.78
2022-08-02T16:39:10.286Z,32.96
2022-08-02T16:41:51.065Z,32.55
2022-08-02T16:44:28.981Z,33.81
2022-08-02T16:47:00.988Z,34.48
2022-08-02T16:50:06.539Z,35.73
2022-08-02T16:52:18.996Z,37.01
2022-08-02T16:54:49.679Z,37.57
2022-08-02T16:57:19.721Z,38.11
2022-08-02T16:59:57.268Z,38.88
2022-08-02T17:02:26.578Z,39.92
2022-08-02T17:04:55.586Z,39.76
2022-08-02T17:10:12.125Z,40.55
2022-08-02T17:12:39.829Z,40.84
2022-08-02T17:16:00.979Z,40.99
2022-08-02T17:17:55.194Z,40.70
2022-08-02T17:20:24.465Z,41.51
2022-08-02T17:22:52.679Z,41.69
2022-08-02T17:25:20.387Z,41.64
2022-08-02T17:27:55.665Z,41.38
2022-08-02T17:30:26.451Z,41.51
2022-08-02T17:32:57.894Z,42.14
2022-08-02T17:35:27.127Z,42.24
2022-08-02T17:38:11.328Z,42.62
2022-08-02T17:40:45.943Z,42.41
2022-08-02T17:43:14.329Z,42.10
2022-08-02T17:46:00.560Z,42.48
2022-08-02T17:48:54.869Z,42.27
2022-08-02T17:52:14.723Z,42.52
2022-08-02T17:54:11.060Z,42.56
2022-08-02T17:56:42.510Z,42.27
2022-08-02T17:59:10.631Z,42.94
2022-08-02T18:01:52.533Z,42.55
2022-08-02T18:04:27.381Z,43.03
2022-08-02T18:06:55.600Z,42.99
2022-08-02T18:09:24.528Z,43.13
2022-08-02T18:11:54.579Z,42.68
2022-08-02T18:14:22.369Z,43.32
2022-08-02T18:16:52.186Z,43.01
2022-08-02T18:19:20.805Z,43.39
2022-08-02T18:21:49.202Z,43.49
2022-08-02T18:24:17.046Z,43.43
2022-08-02T18:26:44.782Z,43.29
2022-08-02T18:29:14.942Z,43.71
2022-08-02T18:31:51.063Z,43.54
2022-08-02T18:34:24.350Z,44.19
2022-08-02T18:36:52.456Z,43.72
2022-08-02T18:39:20.233Z,43.98
2022-08-02T18:41:50.275Z,44.36
2022-08-02T18:44:18.616Z,44.22
2022-08-02T18:46:46.798Z,44.11
2022-08-02T18:49:17.550Z,44.53
2022-08-02T18:51:45.672Z,44.75
2022-08-02T18:54:13.393Z,45.12
2022-08-02T18:56:47.490Z,45.01
2022-08-02T18:59:15.632Z,45.06
2022-08-02T19:01:51.101Z,45.07
2022-08-02T19:07:08.203Z,45.64
2022-08-02T19:09:36.036Z,45.95
2022-08-02T19:12:07.626Z,45.47
2022-08-02T19:14:35.398Z,45.96
2022-08-02T19:17:15.873Z,45.99
2022-08-02T19:19:51.283Z,46.14
2022-08-02T19:22:20.224Z,46.24
2022-08-02T19:24:51.861Z,46.55
2022-08-02T19:27:25.808Z,46.34
2022-08-02T19:29:54.089Z,46.19
2022-08-02T19:32:39.544Z,46.52
2022-08-02T19:35:19.251Z,46.82
2022-08-02T19:37:59.307Z,46.75
2022-08-02T19:40:27.807Z,46.76
2022-08-02T19:44:21.884Z,47.07
2022-08-02T19:45:49.593Z,48.22
2022-08-02T19:48:23.928Z,47.79
2022-08-02T19:50:53.754Z,48.72
2022-08-02T19:53:29.191Z,48.63
2022-08-02T19:56:12.392Z,48.78
2022-08-02T19:58:44.860Z,49.69
2022-08-02T20:01:16.485Z,49.29
2022-08-02T20:03:51.266Z,50.07
2022-08-02T20:09:08.246Z,50.25
2022-08-02T20:11:37.360Z,50.86
2022-08-02T20:14:05.627Z,51.13
2022-08-02T20:16:33.436Z,51.29
2022-08-02T20:19:02.431Z,51.08
2022-08-02T20:21:34.425Z,51.52
2022-08-02T20:24:04.495Z,52.16
2022-08-02T20:26:32.154Z,51.65
2022-08-02T20:29:02.820Z,51.97
2022-08-02T20:31:30.749Z,52.32
2022-08-02T20:33:58.467Z,52.76
2022-08-02T20:36:26.839Z,52.37
2022-08-02T20:38:54.838Z,53.10
2022-08-02T20:41:22.635Z,52.63
2022-08-02T20:43:50.449Z,53.01
2022-08-02T20:46:18.292Z,52.63
2022-08-02T20:48:46.365Z,53.39
2022-08-02T20:51:14.140Z,53.39
2022-08-02T20:53:55.049Z,53.67
2022-08-02T20:56:24.117Z,53.23
2022-08-02T20:58:52.613Z,53.82
2022-08-02T21:01:21.273Z,53.74
2022-08-02T21:03:53.648Z,54.01
2022-08-02T21:06:28.073Z,53.97
2022-08-02T21:08:56.020Z,54.48
2022-08-02T21:11:25.390Z,54.15
2022-08-02T21:14:08.065Z,54.17
2022-08-02T21:16:36.927Z,54.62
2022-08-02T21:19:09.827Z,54.82
2022-08-02T21:21:37.641Z,54.72
2022-08-02T21:24:05.376Z,54.69
2022-08-02T21:26:33.062Z,54.63
2022-08-02T21:29:03.937Z,55.13
2022-08-02T21:31:35.442Z,55.31
2022-08-02T21:34:03.941Z,54.80
2022-08-02T21:36:50.535Z,55.31
2022-08-02T21:39:18.311Z,54.96
2022-08-02T21:41:47.304Z,55.44
2022-08-02T21:44:15.578Z,55.15
2022-08-02T21:46:44.571Z,55.15
2022-08-02T21:49:13.283Z,54.70
2022-08-02T21:51:42.776Z,54.58
2022-08-02T21:54:18.342Z,54.78
2022-08-02T21:56:48.417Z,55.09
2022-08-02T21:59:16.678Z,54.59
2022-08-02T22:01:52.791Z,55.18
2022-08-02T22:04:21.717Z,54.76
2022-08-02T22:06:49.551Z,55.53
2022-08-02T22:09:42.192Z,55.59
2022-08-02T22:12:05.018Z,55.74
2022-08-02T22:14:39.396Z,56.05
2022-08-02T22:17:08.732Z,55.44
2022-08-02T22:19:37.208Z,55.93
2022-08-02T22:22:05.565Z,55.67
2022-08-02T22:24:33.228Z,56.07
2022-08-02T22:27:01.476Z,55.84
2022-08-02T22:29:30.454Z,56.17
2022-08-02T22:31:58.842Z,56.62
2022-08-02T22:34:37.340Z,56.17
2022-08-02T22:38:15.434Z,56.46
2022-08-02T22:40:08.780Z,56.66
2022-08-02T22:42:40.150Z,56.81
2022-08-02T22:45:09.379Z,56.87
2022-08-02T22:47:38.651Z,57.23
2022-08-02T22:50:19.178Z,57.34
2022-08-02T22:52:50.282Z,56.89
2022-08-02T22:55:18.268Z,57.38
2022-08-02T22:57:56.778Z,56.86
2022-08-02T22:58:36.735Z,40.16
2022-08-02T22:58:46.792Z,45.18
2022-08-02T22:58:54.482Z,50.06
2022-08-02T23:00:25.349Z,57.36
2022-08-02T23:02:53.151Z,57.28
2022-08-02T23:05:21.981Z,57.48
2022-08-02T23:07:49.718Z,57.64
2022-08-02T23:10:17.391Z,57.40
2022-08-02T23:12:44.998Z,57.58
2022-08-02T23:15:12.696Z,57.62
2022-08-02T23:17:58.286Z,57.51
2022-08-02T23:20:25.969Z,57.65
2022-08-02T23:22:55.843Z,57.95
2022-08-02T23:25:23.537Z,58.02
2022-08-02T23:27:51.484Z,57.77
2022-08-02T23:30:19.206Z,57.66
2022-08-02T23:32:47.587Z,58.09
2022-08-02T23:35:17.214Z,58.08
2022-08-02T23:38:00.326Z,58.04
2022-08-02T23:40:39.501Z,57.83
2022-08-02T23:43:14.550Z,57.83
2022-08-02T23:45:42.746Z,57.86
2022-08-02T23:48:10.774Z,58.05
2022-08-02T23:50:38.391Z,58.32
2022-08-02T23:53:06.055Z,58.13
2022-08-02T23:55:33.781Z,57.85
2022-08-02T23:58:01.910Z,58.56
